sensor_id;sensor_type;location;lat;lon;timestamp;pressure;altitude;pressure_sealevel;temperature;humidity
24666;BME280;29726;53.532;-1.478;2023-02-01T00:00:45;100753.31;;;10.94;100.00
24666;BME280;29726;53.532;-1.478;2023-02-01T00:03:11;100772.09;;;11.12;100.00
24666;BME280;29726;53.532;-1.478;2023-02-01T00:05:38;100797.41;;;11.17;100.00
24666;BME280;29726;53.532;-1.478;2023-02-01T00:08:03;100791.19;;;11.13;100.00
24666;BME280;29726;53.532;-1.478;2023-02-01T00:10:29;100809.81;;;11.16;100.00
24666;BME280;29726;53.532;-1.478;2023-02-01T00:12:54;100814.63;;;11.07;100.00
24666;BME280;29726;53.532;-1.478;2023-02-01T00:15:20;100834.34;;;11.12;100.00
24666;BME280;29726;53.532;-1.478;2023-02-01T00:17:46;100823.47;;;11.05;100.00
24666;BME280;29726;53.532;-1.478;2023-02-01T00:20:11;100834.97;;;11.16;100.00
24666;BME280;29726;53.532;-1.478;2023-02-01T00:22:37;100835.91;;;11.13;100.00
24666;BME280;29726;53.532;-1.478;2023-02-01T00:25:02;100827.53;;;11.13;100.00
24666;BME280;29726;53.532;-1.478;2023-02-01T00:27:28;100821.13;;;11.04;100.00
24666;BME280;29726;53.532;-1.478;2023-02-01T00:29:56;100834.66;;;11.14;100.00
24666;BME280;29726;53.532;-1.478;2023-02-01T00:32:22;100839.00;;;11.15;100.00
24666;BME280;29726;53.532;-1.478;2023-02-01T00:34:47;100839.16;;;11.12;100.00
24666;BME280;29726;53.532;-1.478;2023-02-01T00:37:12;100831.06;;;11.14;100.00
24666;BME280;29726;53.532;-1.478;2023-02-01T00:39:38;100812.44;;;11.11;100.00
24666;BME280;29726;53.532;-1.478;2023-02-01T00:42:03;100809.19;;;11.03;100.00
24666;BME280;29726;53.532;-1.478;2023-02-01T00:44:29;100792.44;;;11.03;100.00
24666;BME280;29726;53.532;-1.478;2023-02-01T00:46:58;100802.50;;;11.01;100.00
24666;BME280;29726;53.532;-1.478;2023-02-01T00:49:23;100833.25;;;11.10;100.00
24666;BME280;29726;53.532;-1.478;2023-02-01T00:51:49;100813.84;;;11.06;100.00
24666;BME280;29726;53.532;-1.478;2023-02-01T00:54:14;100815.41;;;11.07;100.00
24666;BME280;29726;53.532;-1.478;2023-02-01T00:56:40;100802.38;;;11.04;100.00
24666;BME280;29726;53.532;-1.478;2023-02-01T00:59:05;100801.44;;;11.07;100.00
24666;BME280;29726;53.532;-1.478;2023-02-01T01:01:30;100792.44;;;11.03;100.00
24666;BME280;29726;53.532;-1.478;2023-02-01T01:03:58;100789.31;;;11.01;100.00
24666;BME280;29726;53.532;-1.478;2023-02-01T01:06:31;100777.06;;;10.99;100.00
24666;BME280;29726;53.532;-1.478;2023-02-01T01:08:59;100781.25;;;11.03;100.00
24666;BME280;29726;53.532;-1.478;2023-02-01T01:11:28;100777.22;;;11.04;100.00
24666;BME280;29726;53.532;-1.478;2023-02-01T01:13:55;100760.47;;;11.04;100.00
24666;BME280;29726;53.532;-1.478;2023-02-01T01:16:23;100735.31;;;10.95;100.00
24666;BME280;29726;53.532;-1.478;2023-02-01T01:18:49;100732.38;;;10.99;100.00
24666;BME280;29726;53.532;-1.478;2023-02-01T01:21:15;100734.53;;;10.95;100.00
24666;BME280;29726;53.532;-1.478;2023-02-01T01:23:42;100720.56;;;11.04;100.00
24666;BME280;29726;53.532;-1.478;2023-02-01T01:26:11;100724.13;;;10.95;100.00
24666;BME280;29726;53.532;-1.478;2023-02-01T01:28:38;100722.75;;;11.00;100.00
24666;BME280;29726;53.532;-1.478;2023-02-01T01:31:03;100711.41;;;10.94;100.00
24666;BME280;29726;53.532;-1.478;2023-02-01T01:33:28;100724.91;;;10.96;100.00
24666;BME280;29726;53.532;-1.478;2023-02-01T01:35:54;100735.91;;;10.99;100.00
24666;BME280;29726;53.532;-1.478;2023-02-01T01:38:19;100720.72;;;10.91;100.00
24666;BME280;29726;53.532;-1.478;2023-02-01T01:40:46;100716.06;;;10.97;100.00
24666;BME280;29726;53.532;-1.478;2023-02-01T01:43:13;100734.84;;;10.97;100.00
24666;BME280;29726;53.532;-1.478;2023-02-01T01:45:39;100717.31;;;10.87;100.00
24666;BME280;29726;53.532;-1.478;2023-02-01T01:48:28;100722.28;;;10.92;100.00
24666;BME280;29726;53.532;-1.478;2023-02-01T01:51:03;100708.44;;;10.89;100.00
24666;BME280;29726;53.532;-1.478;2023-02-01T01:53:37;100710.47;;;10.88;100.00
24666;BME280;29726;53.532;-1.478;2023-02-01T01:56:04;100712.78;;;10.90;100.00
24666;BME280;29726;53.532;-1.478;2023-02-01T01:58:32;100707.06;;;10.84;100.00
24666;BME280;29726;53.532;-1.478;2023-02-01T02:00:58;100706.91;;;10.88;100.00
24666;BME280;29726;53.532;-1.478;2023-02-01T02:03:43;100692.00;;;10.82;100.00
24666;BME280;29726;53.532;-1.478;2023-02-01T02:09:17;100701.63;;;10.90;100.00
24666;BME280;29726;53.532;-1.478;2023-02-01T02:11:42;100689.69;;;10.89;100.00
24666;BME280;29726;53.532;-1.478;2023-02-01T02:14:10;100677.09;;;10.85;100.00
24666;BME280;29726;53.532;-1.478;2023-02-01T02:38:54;100665.81;;;10.79;100.00
24666;BME280;29726;53.532;-1.478;2023-02-01T02:41:27;100675.72;;;10.80;100.00
24666;BME280;29726;53.532;-1.478;2023-02-01T02:44:28;100666.88;;;10.82;100.00
24666;BME280;29726;53.532;-1.478;2023-02-01T02:47:23;100654.91;;;10.72;100.00
24666;BME280;29726;53.532;-1.478;2023-02-01T02:53:02;100661.13;;;10.76;100.00
24666;BME280;29726;53.532;-1.478;2023-02-01T02:55:50;100654.91;;;10.72;100.00
24666;BME280;29726;53.532;-1.478;2023-02-01T02:58:16;100673.41;;;10.79;100.00
24666;BME280;29726;53.532;-1.478;2023-02-01T03:01:01;100658.63;;;10.78;100.00
24666;BME280;29726;53.532;-1.478;2023-02-01T03:03:47;100639.09;;;10.69;100.00
24666;BME280;29726;53.532;-1.478;2023-02-01T03:06:33;100646.25;;;10.70;100.00
24666;BME280;29726;53.532;-1.478;2023-02-01T03:09:02;100618.63;;;10.72;100.00
24666;BME280;29726;53.532;-1.478;2023-02-01T03:11:30;100642.22;;;10.71;100.00
24666;BME280;29726;53.532;-1.478;2023-02-01T03:14:18;100619.72;;;10.75;100.00
24666;BME280;29726;53.532;-1.478;2023-02-01T03:16:57;100609.63;;;10.68;100.00
24666;BME280;29726;53.532;-1.478;2023-02-01T03:19:38;100619.88;;;10.71;100.00
24666;BME280;29726;53.532;-1.478;2023-02-01T03:22:13;100635.56;;;10.69;100.00
24666;BME280;29726;53.532;-1.478;2023-02-01T03:24:51;100605.00;;;10.65;100.00
24666;BME280;29726;53.532;-1.478;2023-02-01T03:27:30;100619.41;;;10.73;100.00
24666;BME280;29726;53.532;-1.478;2023-02-01T03:30:06;100626.25;;;10.72;100.00
24666;BME280;29726;53.532;-1.478;2023-02-01T03:32:35;100621.44;;;10.63;100.00
24666;BME280;29726;53.532;-1.478;2023-02-01T03:35:28;100628.88;;;10.66;100.00
24666;BME280;29726;53.532;-1.478;2023-02-01T03:38:01;100630.41;;;10.67;100.00
24666;BME280;29726;53.532;-1.478;2023-02-01T03:40:33;100632.41;;;10.67;100.00
24666;BME280;29726;53.532;-1.478;2023-02-01T03:43:02;100646.72;;;10.69;100.00
24666;BME280;29726;53.532;-1.478;2023-02-01T03:45:43;100640.50;;;10.65;100.00
24666;BME280;29726;53.532;-1.478;2023-02-01T03:48:12;100652.31;;;10.69;100.00
24666;BME280;29726;53.532;-1.478;2023-02-01T03:50:42;100646.72;;;10.69;100.00
24666;BME280;29726;53.532;-1.478;2023-02-01T03:53:13;100644.06;;;10.65;100.00
24666;BME280;29726;53.532;-1.478;2023-02-01T03:55:41;100646.88;;;10.65;100.00
24666;BME280;29726;53.532;-1.478;2023-02-01T03:58:19;100647.00;;;10.62;100.00
24666;BME280;29726;53.532;-1.478;2023-02-01T04:00:56;100648.88;;;10.65;100.00
24666;BME280;29726;53.532;-1.478;2023-02-01T04:03:23;100653.22;;;10.66;100.00
24666;BME280;29726;53.532;-1.478;2023-02-01T04:05:49;100637.38;;;10.63;100.00
24666;BME280;29726;53.532;-1.478;2023-02-01T04:08:15;100644.84;;;10.66;100.00
24666;BME280;29726;53.532;-1.478;2023-02-01T04:10:40;100650.09;;;10.64;100.00
24666;BME280;29726;53.532;-1.478;2023-02-01T04:13:05;100633.53;;;10.60;100.00
24666;BME280;29726;53.532;-1.478;2023-02-01T04:15:32;100617.22;;;10.59;100.00
24666;BME280;29726;53.532;-1.478;2023-02-01T04:17:58;100614.00;;;10.60;100.00
24666;BME280;29726;53.532;-1.478;2023-02-01T04:20:24;100610.25;;;10.63;100.00
24666;BME280;29726;53.532;-1.478;2023-02-01T04:22:49;100590.88;;;10.60;100.00
24666;BME280;29726;53.532;-1.478;2023-02-01T04:25:15;100600.63;;;10.55;100.00
24666;BME280;29726;53.532;-1.478;2023-02-01T04:27:42;100594.91;;;10.50;100.00
24666;BME280;29726;53.532;-1.478;2023-02-01T04:30:08;100597.25;;;10.60;100.00
24666;BME280;29726;53.532;-1.478;2023-02-01T04:32:35;100595.66;;;10.50;100.00
24666;BME280;29726;53.532;-1.478;2023-02-01T04:35:01;100606.53;;;10.57;100.00
24666;BME280;29726;53.532;-1.478;2023-02-01T04:37:27;100630.75;;;10.60;100.00
24666;BME280;29726;53.532;-1.478;2023-02-01T04:39:52;100623.28;;;10.57;100.00
24666;BME280;29726;53.532;-1.478;2023-02-01T04:42:17;100622.97;;;10.55;100.00
24666;BME280;29726;53.532;-1.478;2023-02-01T04:44:43;100586.22;;;10.57;100.00
24666;BME280;29726;53.532;-1.478;2023-02-01T04:47:08;100571.31;;;10.33;100.00
24666;BME280;29726;53.532;-1.478;2023-02-01T04:49:34;100632.44;;;10.58;100.00
24666;BME280;29726;53.532;-1.478;2023-02-01T04:52:00;100615.38;;;10.47;100.00
24666;BME280;29726;53.532;-1.478;2023-02-01T04:54:25;100622.19;;;10.55;100.00
24666;BME280;29726;53.532;-1.478;2023-02-01T04:56:50;100627.78;;;10.55;100.00
24666;BME280;29726;53.532;-1.478;2023-02-01T04:59:16;100636.59;;;10.53;100.00
24666;BME280;29726;53.532;-1.478;2023-02-01T05:01:41;100639.69;;;10.55;100.00
24666;BME280;29726;53.532;-1.478;2023-02-01T05:04:06;100631.31;;;10.55;100.00
24666;BME280;29726;53.532;-1.478;2023-02-01T05:06:32;100638.31;;;10.51;100.00
24666;BME280;29726;53.532;-1.478;2023-02-01T05:08:57;100622.50;;;10.48;100.00
24666;BME280;29726;53.532;-1.478;2023-02-01T05:11:23;100644.97;;;10.53;100.00
24666;BME280;29726;53.532;-1.478;2023-02-01T05:14:07;100643.91;;;10.51;100.00
24666;BME280;29726;53.532;-1.478;2023-02-01T05:16:32;100621.69;;;10.29;100.00
24666;BME280;29726;53.532;-1.478;2023-02-01T05:18:58;100675.69;;;10.53;100.00
24666;BME280;29726;53.532;-1.478;2023-02-01T05:21:23;100623.59;;;10.50;100.00
24666;BME280;29726;53.532;-1.478;2023-02-01T05:23:48;100658.19;;;10.53;100.00
24666;BME280;29726;53.532;-1.478;2023-02-01T05:26:33;100669.03;;;10.51;100.00
24666;BME280;29726;53.532;-1.478;2023-02-01T05:28:59;100680.63;;;10.49;100.00
24666;BME280;29726;53.532;-1.478;2023-02-01T05:31:24;100671.34;;;10.43;100.00
24666;BME280;29726;53.532;-1.478;2023-02-01T05:33:50;100674.59;;;10.51;100.00
24666;BME280;29726;53.532;-1.478;2023-02-01T05:36:15;100673.19;;;10.55;100.00
24666;BME280;29726;53.532;-1.478;2023-02-01T05:38:41;100642.31;;;10.32;100.00
24666;BME280;29726;53.532;-1.478;2023-02-01T05:41:06;100685.59;;;10.54;100.00
24666;BME280;29726;53.532;-1.478;2023-02-01T05:43:32;100668.53;;;10.52;100.00
24666;BME280;29726;53.532;-1.478;2023-02-01T05:45:57;100674.78;;;10.56;100.00
24666;BME280;29726;53.532;-1.478;2023-02-01T05:48:23;100651.50;;;10.50;100.00
24666;BME280;29726;53.532;-1.478;2023-02-01T05:50:48;100671.66;;;10.54;100.00
24666;BME280;29726;53.532;-1.478;2023-02-01T05:53:13;100660.19;;;10.52;100.00
24666;BME280;29726;53.532;-1.478;2023-02-01T05:55:39;100646.22;;;10.52;100.00
24666;BME280;29726;53.532;-1.478;2023-02-01T05:58:05;100648.25;;;10.52;100.00
24666;BME280;29726;53.532;-1.478;2023-02-01T06:00:30;100635.97;;;10.40;100.00
24666;BME280;29726;53.532;-1.478;2023-02-01T06:02:56;100652.59;;;10.53;100.00
24666;BME280;29726;53.532;-1.478;2023-02-01T06:05:22;100660.81;;;10.56;100.00
24666;BME280;29726;53.532;-1.478;2023-02-01T06:07:47;100597.81;;;10.28;100.00
24666;BME280;29726;53.532;-1.478;2023-02-01T06:10:15;100620.47;;;10.48;100.00
24666;BME280;29726;53.532;-1.478;2023-02-01T06:12:41;100600.31;;;10.44;100.00
24666;BME280;29726;53.532;-1.478;2023-02-01T06:15:06;100639.88;;;10.52;100.00
24666;BME280;29726;53.532;-1.478;2023-02-01T06:17:32;100644.66;;;10.51;100.00
24666;BME280;29726;53.532;-1.478;2023-02-01T06:19:57;100640.63;;;10.52;100.00
24666;BME280;29726;53.532;-1.478;2023-02-01T06:22:23;100646.53;;;10.54;100.00
24666;BME280;29726;53.532;-1.478;2023-02-01T06:24:48;100627.13;;;10.42;100.00
24666;BME280;29726;53.532;-1.478;2023-02-01T06:27:14;100652.72;;;10.49;100.00
24666;BME280;29726;53.532;-1.478;2023-02-01T06:29:40;100639.09;;;10.51;100.00
24666;BME280;29726;53.532;-1.478;2023-02-01T06:32:05;100639.09;;;10.42;100.00
24666;BME280;29726;53.532;-1.478;2023-02-01T06:34:31;100608.22;;;10.28;100.00
24666;BME280;29726;53.532;-1.478;2023-02-01T06:36:56;100640.31;;;10.50;100.00
24666;BME280;29726;53.532;-1.478;2023-02-01T06:39:21;100636.78;;;10.50;100.00
24666;BME280;29726;53.532;-1.478;2023-02-01T06:41:48;100639.69;;;10.55;100.00
24666;BME280;29726;53.532;-1.478;2023-02-01T06:44:14;100614.91;;;10.48;100.00
24666;BME280;29726;53.532;-1.478;2023-02-01T06:46:40;100623.28;;;10.48;100.00
24666;BME280;29726;53.532;-1.478;2023-02-01T06:49:05;100629.63;;;10.58;100.00
24666;BME280;29726;53.532;-1.478;2023-02-01T06:51:31;100625.28;;;10.57;100.00
24666;BME280;29726;53.532;-1.478;2023-02-01T06:53:57;100628.72;;;10.52;100.00
24666;BME280;29726;53.532;-1.478;2023-02-01T06:56:22;100616.31;;;10.53;100.00
24666;BME280;29726;53.532;-1.478;2023-02-01T06:58:48;100619.41;;;10.55;100.00
24666;BME280;29726;53.532;-1.478;2023-02-01T07:01:15;100606.53;;;10.57;100.00
24666;BME280;29726;53.532;-1.478;2023-02-01T07:03:41;100623.88;;;10.52;100.00
24666;BME280;29726;53.532;-1.478;2023-02-01T07:06:07;100629.19;;;10.59;100.00
24666;BME280;29726;53.532;-1.478;2023-02-01T07:08:35;100602.81;;;10.60;100.00
24666;BME280;29726;53.532;-1.478;2023-02-01T07:11:06;100606.22;;;10.55;100.00
24666;BME280;29726;53.532;-1.478;2023-02-01T07:13:31;100598.47;;;10.59;100.00
24666;BME280;29726;53.532;-1.478;2023-02-01T07:16:01;100601.72;;;10.58;100.00
24666;BME280;29726;53.532;-1.478;2023-02-01T07:18:28;100606.84;;;10.59;100.00
24666;BME280;29726;53.532;-1.478;2023-02-01T07:20:54;100612.44;;;10.59;100.00
24666;BME280;29726;53.532;-1.478;2023-02-01T07:23:20;100589.16;;;10.53;100.00
24666;BME280;29726;53.532;-1.478;2023-02-01T07:25:46;100614.13;;;10.57;100.00
24666;BME280;29726;53.532;-1.478;2023-02-01T07:28:11;100640.66;;;10.61;100.00
24666;BME280;29726;53.532;-1.478;2023-02-01T07:30:37;100609.16;;;10.52;100.00
24666;BME280;29726;53.532;-1.478;2023-02-01T07:33:02;100625.75;;;10.55;100.00
24666;BME280;29726;53.532;-1.478;2023-02-01T07:35:28;100638.00;;;10.58;100.00
24666;BME280;29726;53.532;-1.478;2023-02-01T07:37:54;100613.19;;;10.60;100.00
24666;BME280;29726;53.532;-1.478;2023-02-01T07:40:19;100631.97;;;10.59;100.00
24666;BME280;29726;53.532;-1.478;2023-02-01T07:42:50;100643.44;;;10.61;100.00
24666;BME280;29726;53.532;-1.478;2023-02-01T07:45:15;100645.16;;;10.59;100.00
24666;BME280;29726;53.532;-1.478;2023-02-01T07:47:41;100631.19;;;10.59;100.00
24666;BME280;29726;53.532;-1.478;2023-02-01T07:50:06;100629.19;;;10.59;100.00
24666;BME280;29726;53.532;-1.478;2023-02-01T07:52:32;100652.59;;;10.62;100.00
24666;BME280;29726;53.532;-1.478;2023-02-01T07:54:57;100632.28;;;10.61;100.00
24666;BME280;29726;53.532;-1.478;2023-02-01T07:57:22;100627.94;;;10.60;100.00
24666;BME280;29726;53.532;-1.478;2023-02-01T07:59:48;100597.84;;;10.37;100.00
24666;BME280;29726;53.532;-1.478;2023-02-01T08:02:32;100638.63;;;10.62;100.00
24666;BME280;29726;53.532;-1.478;2023-02-01T08:04:57;100625.28;;;10.57;100.00
24666;BME280;29726;53.532;-1.478;2023-02-01T08:07:22;100655.84;;;10.60;100.00
24666;BME280;29726;53.532;-1.478;2023-02-01T08:09:48;100648.41;;;10.57;100.00
24666;BME280;29726;53.532;-1.478;2023-02-01T08:12:13;100645.00;;;10.62;100.00
24666;BME280;29726;53.532;-1.478;2023-02-01T08:14:38;100637.25;;;10.57;100.00
24666;BME280;29726;53.532;-1.478;2023-02-01T08:17:06;100662.69;;;10.59;100.00
24666;BME280;29726;53.532;-1.478;2023-02-01T08:19:31;100645.28;;;10.55;100.00
24666;BME280;29726;53.532;-1.478;2023-02-01T08:21:57;100651.97;;;10.58;100.00
24666;BME280;29726;53.532;-1.478;2023-02-01T08:24:24;100633.34;;;10.37;100.00
24666;BME280;29726;53.532;-1.478;2023-02-01T08:26:50;100655.69;;;10.64;100.00
24666;BME280;29726;53.532;-1.478;2023-02-01T08:29:15;100664.84;;;10.64;100.00
24666;BME280;29726;53.532;-1.478;2023-02-01T08:31:41;100642.84;;;10.57;100.00
24666;BME280;29726;53.532;-1.478;2023-02-01T08:34:08;100674.47;;;10.63;100.00
24666;BME280;29726;53.532;-1.478;2023-02-01T08:36:34;100629.19;;;10.68;100.00
24666;BME280;29726;53.532;-1.478;2023-02-01T08:39:00;100665.78;;;10.70;100.00
24666;BME280;29726;53.532;-1.478;2023-02-01T08:41:28;100661.00;;;10.71;100.00
24666;BME280;29726;53.532;-1.478;2023-02-01T08:43:55;100653.69;;;10.73;100.00
24666;BME280;29726;53.532;-1.478;2023-02-01T08:46:21;100605.00;;;10.65;100.00
24666;BME280;29726;53.532;-1.478;2023-02-01T08:48:47;100628.84;;;10.75;100.00
24666;BME280;29726;53.532;-1.478;2023-02-01T08:51:14;100623.91;;;10.79;100.00
24666;BME280;29726;53.532;-1.478;2023-02-01T08:53:40;100625.78;;;10.82;100.00
24666;BME280;29726;53.532;-1.478;2023-02-01T08:56:07;100622.50;;;10.84;100.00
24666;BME280;29726;53.532;-1.478;2023-02-01T08:58:33;100624.84;;;10.85;100.00
24666;BME280;29726;53.532;-1.478;2023-02-01T09:01:07;100619.88;;;10.89;100.00
24666;BME280;29726;53.532;-1.478;2023-02-01T09:03:33;100641.91;;;10.87;100.00
24666;BME280;29726;53.532;-1.478;2023-02-01T09:06:04;100640.03;;;10.93;100.00
24666;BME280;29726;53.532;-1.478;2023-02-01T09:08:30;100644.69;;;10.96;100.00
24666;BME280;29726;53.532;-1.478;2023-02-01T09:11:01;100643.13;;;10.95;100.00
24666;BME280;29726;53.532;-1.478;2023-02-01T09:13:27;100638.63;;;10.98;100.00
24666;BME280;29726;53.532;-1.478;2023-02-01T09:15:53;100645.63;;;11.02;100.00
24666;BME280;29726;53.532;-1.478;2023-02-01T09:18:19;100641.91;;;11.05;100.00
24666;BME280;29726;53.532;-1.478;2023-02-01T09:20:44;100661.28;;;11.09;100.00
24666;BME280;29726;53.532;-1.478;2023-02-01T09:23:10;100651.19;;;11.11;100.00
24666;BME280;29726;53.532;-1.478;2023-02-01T09:25:37;100650.88;;;11.18;100.00
24666;BME280;29726;53.532;-1.478;2023-02-01T09:28:03;100652.41;;;11.19;100.00
24666;BME280;29726;53.532;-1.478;2023-02-01T09:30:32;100655.81;;;11.23;100.00
24666;BME280;29726;53.532;-1.478;2023-02-01T09:32:57;100655.38;;;11.25;100.00
24666;BME280;29726;53.532;-1.478;2023-02-01T09:35:22;100648.22;;;11.24;100.00
24666;BME280;29726;53.532;-1.478;2023-02-01T09:37:48;100652.88;;;11.27;100.00
24666;BME280;29726;53.532;-1.478;2023-02-01T09:40:17;100659.22;;;11.36;100.00
24666;BME280;29726;53.532;-1.478;2023-02-01T09:48:29;100624.06;;;11.62;100.00
24666;BME280;29726;53.532;-1.478;2023-02-01T09:50:57;100626.53;;;11.69;100.00
24666;BME280;29726;53.532;-1.478;2023-02-01T09:53:37;100621.06;;;11.83;100.00
24666;BME280;29726;53.532;-1.478;2023-02-01T09:56:07;100634.19;;;11.92;100.00
24666;BME280;29726;53.532;-1.478;2023-02-01T09:58:38;100638.72;;;11.89;100.00
24666;BME280;29726;53.532;-1.478;2023-02-01T10:01:24;100654.06;;;11.94;100.00
24666;BME280;29726;53.532;-1.478;2023-02-01T10:03:59;100656.13;;;11.93;100.00
24666;BME280;29726;53.532;-1.478;2023-02-01T10:09:37;100650.03;;;11.95;100.00
24666;BME280;29726;53.532;-1.478;2023-02-01T10:12:31;100651.13;;;11.97;100.00
24666;BME280;29726;53.532;-1.478;2023-02-01T10:15:02;100667.91;;;11.97;100.00
24666;BME280;29726;53.532;-1.478;2023-02-01T10:20:36;100688.88;;;12.02;100.00
24666;BME280;29726;53.532;-1.478;2023-02-01T10:23:31;100679.25;;;12.03;100.00
24666;BME280;29726;53.532;-1.478;2023-02-01T10:26:38;100692.13;;;12.00;100.00
24666;BME280;29726;53.532;-1.478;2023-02-01T10:29:02;100705.66;;;12.02;100.00
24666;BME280;29726;53.532;-1.478;2023-02-01T10:31:31;100711.22;;;12.11;100.00
24666;BME280;29726;53.532;-1.478;2023-02-01T10:34:04;100702.06;;;12.10;100.00
24666;BME280;29726;53.532;-1.478;2023-02-01T10:36:35;100715.88;;;12.14;100.00
24666;BME280;29726;53.532;-1.478;2023-02-01T10:39:05;100703.91;;;12.13;100.00
24666;BME280;29726;53.532;-1.478;2023-02-01T10:41:35;100704.38;;;12.12;100.00
24666;BME280;29726;53.532;-1.478;2023-02-01T10:44:04;100685.47;;;11.98;100.00
24666;BME280;29726;53.532;-1.478;2023-02-01T10:46:33;100710.09;;;12.17;100.00
24666;BME280;29726;53.532;-1.478;2023-02-01T10:49:02;100719.88;;;12.22;100.00
24666;BME280;29726;53.532;-1.478;2023-02-01T10:51:33;100716.59;;;12.23;100.00
24666;BME280;29726;53.532;-1.478;2023-02-01T10:54:17;100701.41;;;12.15;100.00
24666;BME280;29726;53.532;-1.478;2023-02-01T10:56:45;100718.16;;;12.24;100.00
24666;BME280;29726;53.532;-1.478;2023-02-01T10:59:17;100719.88;;;12.22;100.00
24666;BME280;29726;53.532;-1.478;2023-02-01T11:01:45;100727.94;;;12.29;100.00
24666;BME280;29726;53.532;-1.478;2023-02-01T11:04:19;100732.28;;;12.30;100.00
24666;BME280;29726;53.532;-1.478;2023-02-01T11:06:51;100723.75;;;12.24;100.00
24666;BME280;29726;53.532;-1.478;2023-02-01T11:09:25;100733.84;;;12.31;100.00
24666;BME280;29726;53.532;-1.478;2023-02-01T11:14:18;100740.63;;;12.39;100.00
24666;BME280;29726;53.532;-1.478;2023-02-01T11:16:49;100744.06;;;12.43;100.00
24666;BME280;29726;53.532;-1.478;2023-02-01T11:19:17;100728.19;;;12.40;100.00
24666;BME280;29726;53.532;-1.478;2023-02-01T11:21:43;100741.56;;;12.45;100.00
24666;BME280;29726;53.532;-1.478;2023-02-01T11:24:32;100702.75;;;12.29;100.00
24666;BME280;29726;53.532;-1.478;2023-02-01T11:27:01;100750.19;;;12.56;100.00
24666;BME280;29726;53.532;-1.478;2023-02-01T11:29:41;100766.03;;;12.59;100.00
24666;BME280;29726;53.532;-1.478;2023-02-01T11:32:08;100758.72;;;12.61;100.00
24666;BME280;29726;53.532;-1.478;2023-02-01T11:39:54;100742.66;;;12.71;100.00
24666;BME280;29726;53.532;-1.478;2023-02-01T11:42:21;100734.38;;;12.76;100.00
24666;BME280;29726;53.532;-1.478;2023-02-01T11:44:47;100731.56;;;12.76;100.00
24666;BME280;29726;53.532;-1.478;2023-02-01T11:47:31;100756.88;;;12.82;100.00
24666;BME280;29726;53.532;-1.478;2023-02-01T11:50:12;100756.41;;;12.83;100.00
24666;BME280;29726;53.532;-1.478;2023-02-01T12:09:05;100786.75;;;12.94;100.00
24666;BME280;29726;53.532;-1.478;2023-02-01T12:11:44;100783.94;;;12.94;100.00
24666;BME280;29726;53.532;-1.478;2023-02-01T12:36:55;100758.94;;;13.05;100.00
24666;BME280;29726;53.532;-1.478;2023-02-01T12:42:22;100768.72;;;13.09;100.00
24666;BME280;29726;53.532;-1.478;2023-02-01T12:45:01;100772.78;;;13.08;100.00
24666;BME280;29726;53.532;-1.478;2023-02-01T12:52:37;100762.44;;;13.14;100.00
24666;BME280;29726;53.532;-1.478;2023-02-01T12:55:15;100769.47;;;13.10;100.00
24666;BME280;29726;53.532;-1.478;2023-02-01T12:57:46;100780.34;;;13.17;100.00
24666;BME280;29726;53.532;-1.478;2023-02-01T13:00:39;100767.59;;;13.16;100.00
24666;BME280;29726;53.532;-1.478;2023-02-01T13:06:02;100778.81;;;13.16;100.00
24666;BME280;29726;53.532;-1.478;2023-02-01T13:11:08;100757.72;;;13.20;100.00
24666;BME280;29726;53.532;-1.478;2023-02-01T13:16:24;100743.25;;;13.22;100.00
24666;BME280;29726;53.532;-1.478;2023-02-01T13:19:30;100728.06;;;13.14;100.00
24666;BME280;29726;53.532;-1.478;2023-02-01T13:21:58;100742.78;;;13.23;100.00
24666;BME280;29726;53.532;-1.478;2023-02-01T13:24:46;100743.53;;;13.24;100.00
24666;BME280;29726;53.532;-1.478;2023-02-01T13:27:14;100743.25;;;13.22;100.00
24666;BME280;29726;53.532;-1.478;2023-02-01T13:29:59;100745.25;;;13.21;100.00
24666;BME280;29726;53.532;-1.478;2023-02-01T13:35:39;100753.31;;;13.28;100.00
24666;BME280;29726;53.532;-1.478;2023-02-01T13:40:49;100736.78;;;13.30;100.00
24666;BME280;29726;53.532;-1.478;2023-02-01T13:43:26;100752.34;;;13.31;100.00
24666;BME280;29726;53.532;-1.478;2023-02-01T13:45:55;100756.88;;;13.28;100.00
24666;BME280;29726;53.532;-1.478;2023-02-01T13:51:15;100755.91;;;13.31;100.00
24666;BME280;29726;53.532;-1.478;2023-02-01T13:53:48;100757.16;;;13.30;100.00
24666;BME280;29726;53.532;-1.478;2023-02-01T13:56:18;100755.44;;;13.33;100.00
24666;BME280;29726;53.532;-1.478;2023-02-01T13:58:46;100765.88;;;13.32;100.00
24666;BME280;29726;53.532;-1.478;2023-02-01T14:03:54;100736.38;;;13.23;100.00
24666;BME280;29726;53.532;-1.478;2023-02-01T14:11:48;100758.25;;;13.33;100.00
24666;BME280;29726;53.532;-1.478;2023-02-01T14:16:44;100761.34;;;13.35;100.00
24666;BME280;29726;53.532;-1.478;2023-02-01T14:19:31;100778.19;;;13.35;100.00
24666;BME280;29726;53.532;-1.478;2023-02-01T14:24:54;100761.63;;;13.37;100.00
24666;BME280;29726;53.532;-1.478;2023-02-01T14:27:24;100763.41;;;13.34;100.00
24666;BME280;29726;53.532;-1.478;2023-02-01T14:29:56;100773.16;;;13.39;100.00
24666;BME280;29726;53.532;-1.478;2023-02-01T14:32:30;100760.75;;;13.31;100.00
24666;BME280;29726;53.532;-1.478;2023-02-01T14:34:58;100752.81;;;13.29;100.00
24666;BME280;29726;53.532;-1.478;2023-02-01T14:37:30;100733.66;;;13.14;100.00
24666;BME280;29726;53.532;-1.478;2023-02-01T14:40:14;100762.97;;;13.27;100.00
24666;BME280;29726;53.532;-1.478;2023-02-01T14:42:45;100758.28;;;13.10;100.00
24666;BME280;29726;53.532;-1.478;2023-02-01T14:48:41;100751.28;;;12.82;100.00
24666;BME280;29726;53.532;-1.478;2023-02-01T14:50:41;100741.69;;;12.74;100.00